sensor_id;sensor_type;location;lat;lon;timestamp;P1;durP1;ratioP1;P2;durP2;ratioP2
26634;SDS011;14490;54.208;37.686;2023-06-19T00:00:56;20.00;;;7.80;;
26634;SDS011;14490;54.208;37.686;2023-06-19T00:03:24;18.60;;;8.60;;
26634;SDS011;14490;54.208;37.686;2023-06-19T00:05:51;19.27;;;8.63;;
26634;SDS011;14490;54.208;37.686;2023-06-19T00:08:19;22.48;;;9.32;;
26634;SDS011;14490;54.208;37.686;2023-06-19T00:10:48;27.80;;;8.18;;
26634;SDS011;14490;54.208;37.686;2023-06-19T00:13:15;16.08;;;6.00;;
26634;SDS011;14490;54.208;37.686;2023-06-19T00:15:45;12.00;;;5.85;;
26634;SDS011;14490;54.208;37.686;2023-06-19T00:18:13;11.93;;;5.38;;
26634;SDS011;14490;54.208;37.686;2023-06-19T00:20:41;9.65;;;5.55;;
26634;SDS011;14490;54.208;37.686;2023-06-19T00:23:11;11.55;;;5.53;;
26634;SDS011;14490;54.208;37.686;2023-06-19T00:25:39;7.90;;;5.68;;
26634;SDS011;14490;54.208;37.686;2023-06-19T00:28:08;11.77;;;6.32;;
26634;SDS011;14490;54.208;37.686;2023-06-19T00:30:37;16.55;;;6.72;;
26634;SDS011;14490;54.208;37.686;2023-06-19T00:33:06;11.75;;;5.93;;
26634;SDS011;14490;54.208;37.686;2023-06-19T00:35:34;30.92;;;6.70;;
26634;SDS011;14490;54.208;37.686;2023-06-19T00:38:02;23.80;;;7.22;;
26634;SDS011;14490;54.208;37.686;2023-06-19T00:40:30;11.60;;;5.40;;
26634;SDS011;14490;54.208;37.686;2023-06-19T00:42:59;12.63;;;6.18;;
26634;SDS011;14490;54.208;37.686;2023-06-19T00:45:28;13.80;;;6.30;;
26634;SDS011;14490;54.208;37.686;2023-06-19T00:47:56;16.33;;;6.88;;
26634;SDS011;14490;54.208;37.686;2023-06-19T00:50:28;18.10;;;7.80;;
26634;SDS011;14490;54.208;37.686;2023-06-19T00:52:56;11.43;;;5.93;;
26634;SDS011;14490;54.208;37.686;2023-06-19T00:55:25;20.20;;;6.63;;
26634;SDS011;14490;54.208;37.686;2023-06-19T00:57:55;9.52;;;4.47;;
26634;SDS011;14490;54.208;37.686;2023-06-19T01:00:23;12.20;;;6.28;;
26634;SDS011;14490;54.208;37.686;2023-06-19T01:02:50;18.08;;;7.00;;
26634;SDS011;14490;54.208;37.686;2023-06-19T01:05:18;14.63;;;6.43;;
26634;SDS011;14490;54.208;37.686;2023-06-19T01:07:47;14.77;;;8.15;;
26634;SDS011;14490;54.208;37.686;2023-06-19T01:10:27;15.47;;;7.90;;
26634;SDS011;14490;54.208;37.686;2023-06-19T01:13:06;12.40;;;6.82;;
26634;SDS011;14490;54.208;37.686;2023-06-19T01:15:38;11.27;;;5.55;;
26634;SDS011;14490;54.208;37.686;2023-06-19T01:18:08;13.05;;;6.85;;
26634;SDS011;14490;54.208;37.686;2023-06-19T01:20:37;15.43;;;7.68;;
26634;SDS011;14490;54.208;37.686;2023-06-19T01:23:07;14.50;;;7.07;;
26634;SDS011;14490;54.208;37.686;2023-06-19T01:25:36;20.88;;;7.47;;
26634;SDS011;14490;54.208;37.686;2023-06-19T01:28:05;21.95;;;7.55;;
26634;SDS011;14490;54.208;37.686;2023-06-19T01:30:37;17.23;;;7.70;;
26634;SDS011;14490;54.208;37.686;2023-06-19T01:33:08;19.05;;;7.97;;
26634;SDS011;14490;54.208;37.686;2023-06-19T01:35:43;23.48;;;8.95;;
26634;SDS011;14490;54.208;37.686;2023-06-19T01:38:13;25.48;;;8.90;;
26634;SDS011;14490;54.208;37.686;2023-06-19T01:40:42;21.73;;;7.40;;
26634;SDS011;14490;54.208;37.686;2023-06-19T01:43:10;19.80;;;6.43;;
26634;SDS011;14490;54.208;37.686;2023-06-19T01:45:38;23.38;;;9.40;;
26634;SDS011;14490;54.208;37.686;2023-06-19T01:48:07;12.13;;;5.53;;
26634;SDS011;14490;54.208;37.686;2023-06-19T01:50:35;16.95;;;6.10;;
26634;SDS011;14490;54.208;37.686;2023-06-19T01:53:02;9.15;;;5.25;;
26634;SDS011;14490;54.208;37.686;2023-06-19T01:55:31;12.60;;;6.22;;
26634;SDS011;14490;54.208;37.686;2023-06-19T01:57:59;17.85;;;7.72;;
26634;SDS011;14490;54.208;37.686;2023-06-19T02:00:27;10.18;;;5.60;;
26634;SDS011;14490;54.208;37.686;2023-06-19T02:02:55;18.95;;;8.40;;
26634;SDS011;14490;54.208;37.686;2023-06-19T02:05:23;6.15;;;3.85;;
26634;SDS011;14490;54.208;37.686;2023-06-19T02:07:50;7.88;;;4.65;;
26634;SDS011;14490;54.208;37.686;2023-06-19T02:10:17;5.38;;;3.55;;
26634;SDS011;14490;54.208;37.686;2023-06-19T02:12:47;15.20;;;4.60;;
26634;SDS011;14490;54.208;37.686;2023-06-19T02:15:14;7.85;;;4.28;;
26634;SDS011;14490;54.208;37.686;2023-06-19T02:17:42;12.68;;;4.53;;
26634;SDS011;14490;54.208;37.686;2023-06-19T02:20:10;8.35;;;4.25;;
26634;SDS011;14490;54.208;37.686;2023-06-19T02:22:38;9.85;;;4.13;;
26634;SDS011;14490;54.208;37.686;2023-06-19T02:25:06;9.05;;;4.70;;
26634;SDS011;14490;54.208;37.686;2023-06-19T02:27:34;6.90;;;4.32;;
26634;SDS011;14490;54.208;37.686;2023-06-19T02:30:03;8.68;;;3.85;;
26634;SDS011;14490;54.208;37.686;2023-06-19T02:32:32;12.63;;;4.53;;
26634;SDS011;14490;54.208;37.686;2023-06-19T02:35:00;6.25;;;4.13;;
26634;SDS011;14490;54.208;37.686;2023-06-19T02:37:27;10.63;;;4.20;;
26634;SDS011;14490;54.208;37.686;2023-06-19T02:39:55;6.03;;;3.72;;
26634;SDS011;14490;54.208;37.686;2023-06-19T02:42:22;5.15;;;3.50;;
26634;SDS011;14490;54.208;37.686;2023-06-19T02:44:50;5.97;;;3.75;;
26634;SDS011;14490;54.208;37.686;2023-06-19T02:47:19;10.68;;;3.85;;
26634;SDS011;14490;54.208;37.686;2023-06-19T02:49:46;4.40;;;3.03;;
26634;SDS011;14490;54.208;37.686;2023-06-19T02:52:13;5.63;;;3.38;;
26634;SDS011;14490;54.208;37.686;2023-06-19T02:54:41;4.65;;;3.65;;
26634;SDS011;14490;54.208;37.686;2023-06-19T02:57:08;11.20;;;3.60;;
26634;SDS011;14490;54.208;37.686;2023-06-19T02:59:36;11.32;;;4.75;;
26634;SDS011;14490;54.208;37.686;2023-06-19T03:02:04;6.03;;;3.65;;
26634;SDS011;14490;54.208;37.686;2023-06-19T03:04:33;7.25;;;3.80;;
26634;SDS011;14490;54.208;37.686;2023-06-19T03:07:02;6.03;;;3.50;;
26634;SDS011;14490;54.208;37.686;2023-06-19T03:09:29;6.53;;;3.63;;
26634;SDS011;14490;54.208;37.686;2023-06-19T03:11:57;11.13;;;4.18;;
26634;SDS011;14490;54.208;37.686;2023-06-19T03:14:27;8.50;;;4.20;;
26634;SDS011;14490;54.208;37.686;2023-06-19T03:16:55;5.87;;;3.07;;
26634;SDS011;14490;54.208;37.686;2023-06-19T03:19:22;5.35;;;3.00;;
26634;SDS011;14490;54.208;37.686;2023-06-19T03:21:52;7.68;;;3.30;;
26634;SDS011;14490;54.208;37.686;2023-06-19T03:24:19;6.22;;;3.90;;
26634;SDS011;14490;54.208;37.686;2023-06-19T03:26:47;28.60;;;4.97;;
26634;SDS011;14490;54.208;37.686;2023-06-19T03:29:14;9.57;;;4.55;;
26634;SDS011;14490;54.208;37.686;2023-06-19T03:31:41;8.52;;;3.83;;
26634;SDS011;14490;54.208;37.686;2023-06-19T03:34:09;9.98;;;2.75;;
26634;SDS011;14490;54.208;37.686;2023-06-19T03:36:36;7.78;;;2.90;;
26634;SDS011;14490;54.208;37.686;2023-06-19T03:39:05;7.47;;;3.30;;
26634;SDS011;14490;54.208;37.686;2023-06-19T03:41:33;10.32;;;3.67;;
26634;SDS011;14490;54.208;37.686;2023-06-19T03:44:00;7.35;;;2.67;;
26634;SDS011;14490;54.208;37.686;2023-06-19T03:46:28;5.25;;;2.75;;
26634;SDS011;14490;54.208;37.686;2023-06-19T03:48:55;3.30;;;2.85;;
26634;SDS011;14490;54.208;37.686;2023-06-19T03:51:23;6.15;;;2.97;;
26634;SDS011;14490;54.208;37.686;2023-06-19T03:53:50;5.50;;;2.90;;
26634;SDS011;14490;54.208;37.686;2023-06-19T03:56:19;8.13;;;2.95;;
26634;SDS011;14490;54.208;37.686;2023-06-19T03:58:46;4.82;;;3.60;;
26634;SDS011;14490;54.208;37.686;2023-06-19T04:01:14;8.77;;;3.38;;
26634;SDS011;14490;54.208;37.686;2023-06-19T04:03:41;10.02;;;2.90;;
26634;SDS011;14490;54.208;37.686;2023-06-19T04:06:08;4.93;;;3.55;;
26634;SDS011;14490;54.208;37.686;2023-06-19T04:08:36;7.07;;;3.92;;
26634;SDS011;14490;54.208;37.686;2023-06-19T04:11:03;7.20;;;3.05;;
26634;SDS011;14490;54.208;37.686;2023-06-19T04:13:32;5.57;;;3.10;;
26634;SDS011;14490;54.208;37.686;2023-06-19T04:16:00;7.35;;;2.95;;
26634;SDS011;14490;54.208;37.686;2023-06-19T04:18:39;8.55;;;2.72;;
26634;SDS011;14490;54.208;37.686;2023-06-19T04:21:07;7.00;;;2.72;;
26634;SDS011;14490;54.208;37.686;2023-06-19T04:23:34;7.47;;;3.05;;
26634;SDS011;14490;54.208;37.686;2023-06-19T04:26:06;10.23;;;3.20;;
26634;SDS011;14490;54.208;37.686;2023-06-19T04:28:35;3.67;;;2.40;;
26634;SDS011;14490;54.208;37.686;2023-06-19T04:31:02;6.07;;;2.85;;
26634;SDS011;14490;54.208;37.686;2023-06-19T04:33:30;4.85;;;2.97;;
26634;SDS011;14490;54.208;37.686;2023-06-19T04:35:58;3.72;;;3.05;;
26634;SDS011;14490;54.208;37.686;2023-06-19T04:38:25;4.70;;;2.90;;
26634;SDS011;14490;54.208;37.686;2023-06-19T04:40:53;4.43;;;2.97;;
26634;SDS011;14490;54.208;37.686;2023-06-19T04:43:25;9.10;;;3.08;;
26634;SDS011;14490;54.208;37.686;2023-06-19T04:45:56;11.20;;;4.03;;
26634;SDS011;14490;54.208;37.686;2023-06-19T04:48:24;8.93;;;3.28;;
26634;SDS011;14490;54.208;37.686;2023-06-19T04:51:14;9.13;;;3.30;;
26634;SDS011;14490;54.208;37.686;2023-06-19T04:54:00;7.63;;;3.55;;
26634;SDS011;14490;54.208;37.686;2023-06-19T04:56:28;9.40;;;3.40;;
26634;SDS011;14490;54.208;37.686;2023-06-19T04:58:55;5.50;;;2.90;;
26634;SDS011;14490;54.208;37.686;2023-06-19T05:01:26;4.25;;;3.25;;
26634;SDS011;14490;54.208;37.686;2023-06-19T05:03:55;8.17;;;3.53;;
26634;SDS011;14490;54.208;37.686;2023-06-19T05:06:24;13.02;;;3.50;;
26634;SDS011;14490;54.208;37.686;2023-06-19T05:08:52;8.88;;;3.30;;
26634;SDS011;14490;54.208;37.686;2023-06-19T05:11:20;8.27;;;2.92;;
26634;SDS011;14490;54.208;37.686;2023-06-19T05:13:47;11.25;;;3.08;;
26634;SDS011;14490;54.208;37.686;2023-06-19T05:16:15;4.45;;;2.80;;
26634;SDS011;14490;54.208;37.686;2023-06-19T05:18:46;7.32;;;3.50;;
26634;SDS011;14490;54.208;37.686;2023-06-19T05:21:14;8.52;;;3.15;;
26634;SDS011;14490;54.208;37.686;2023-06-19T05:23:41;6.95;;;3.40;;
26634;SDS011;14490;54.208;37.686;2023-06-19T05:26:09;10.73;;;3.35;;
26634;SDS011;14490;54.208;37.686;2023-06-19T05:28:36;12.90;;;3.63;;
26634;SDS011;14490;54.208;37.686;2023-06-19T05:31:04;7.65;;;3.13;;
26634;SDS011;14490;54.208;37.686;2023-06-19T05:33:31;7.47;;;3.85;;
26634;SDS011;14490;54.208;37.686;2023-06-19T05:36:00;11.02;;;2.85;;
26634;SDS011;14490;54.208;37.686;2023-06-19T05:38:27;4.20;;;2.65;;
26634;SDS011;14490;54.208;37.686;2023-06-19T05:40:56;7.20;;;3.20;;
26634;SDS011;14490;54.208;37.686;2023-06-19T05:43:23;3.63;;;2.95;;
26634;SDS011;14490;54.208;37.686;2023-06-19T05:45:51;5.90;;;2.65;;
26634;SDS011;14490;54.208;37.686;2023-06-19T05:48:19;6.78;;;3.25;;
26634;SDS011;14490;54.208;37.686;2023-06-19T05:50:46;5.72;;;3.03;;
26634;SDS011;14490;54.208;37.686;2023-06-19T05:53:15;6.15;;;2.65;;
26634;SDS011;14490;54.208;37.686;2023-06-19T05:55:43;6.15;;;2.95;;
26634;SDS011;14490;54.208;37.686;2023-06-19T05:58:10;7.75;;;3.15;;
26634;SDS011;14490;54.208;37.686;2023-06-19T06:00:38;8.82;;;4.13;;
26634;SDS011;14490;54.208;37.686;2023-06-19T06:03:05;4.35;;;3.20;;
26634;SDS011;14490;54.208;37.686;2023-06-19T06:05:33;6.68;;;3.55;;
26634;SDS011;14490;54.208;37.686;2023-06-19T06:08:01;10.10;;;3.38;;
26634;SDS011;14490;54.208;37.686;2023-06-19T06:10:30;5.72;;;2.85;;
26634;SDS011;14490;54.208;37.686;2023-06-19T06:12:58;4.90;;;3.50;;
26634;SDS011;14490;54.208;37.686;2023-06-19T06:15:25;4.00;;;2.90;;
26634;SDS011;14490;54.208;37.686;2023-06-19T06:17:53;9.38;;;3.17;;
26634;SDS011;14490;54.208;37.686;2023-06-19T06:20:20;10.07;;;3.95;;
26634;SDS011;14490;54.208;37.686;2023-06-19T06:22:48;6.25;;;3.30;;
26634;SDS011;14490;54.208;37.686;2023-06-19T06:25:15;17.80;;;4.00;;
26634;SDS011;14490;54.208;37.686;2023-06-19T06:27:44;8.93;;;3.15;;
26634;SDS011;14490;54.208;37.686;2023-06-19T06:30:12;6.32;;;3.40;;
26634;SDS011;14490;54.208;37.686;2023-06-19T06:32:40;5.97;;;3.13;;
26634;SDS011;14490;54.208;37.686;2023-06-19T06:35:08;8.43;;;3.50;;
26634;SDS011;14490;54.208;37.686;2023-06-19T06:37:36;6.13;;;2.80;;
26634;SDS011;14490;54.208;37.686;2023-06-19T06:40:04;8.25;;;3.40;;
26634;SDS011;14490;54.208;37.686;2023-06-19T06:42:36;5.10;;;2.70;;
26634;SDS011;14490;54.208;37.686;2023-06-19T06:45:05;5.10;;;2.80;;
26634;SDS011;14490;54.208;37.686;2023-06-19T06:47:34;5.80;;;3.60;;
26634;SDS011;14490;54.208;37.686;2023-06-19T06:50:05;5.70;;;2.72;;
26634;SDS011;14490;54.208;37.686;2023-06-19T06:52:34;5.25;;;2.45;;
26634;SDS011;14490;54.208;37.686;2023-06-19T06:55:02;6.45;;;2.75;;
26634;SDS011;14490;54.208;37.686;2023-06-19T06:57:31;4.40;;;2.65;;
26634;SDS011;14490;54.208;37.686;2023-06-19T06:59:58;11.30;;;3.63;;
26634;SDS011;14490;54.208;37.686;2023-06-19T07:02:30;7.70;;;2.75;;
26634;SDS011;14490;54.208;37.686;2023-06-19T07:04:58;5.32;;;2.83;;
26634;SDS011;14490;54.208;37.686;2023-06-19T07:07:31;6.80;;;2.88;;
26634;SDS011;14490;54.208;37.686;2023-06-19T07:09:59;3.70;;;2.83;;
26634;SDS011;14490;54.208;37.686;2023-06-19T07:12:26;21.45;;;3.53;;
26634;SDS011;14490;54.208;37.686;2023-06-19T07:14:54;6.72;;;2.88;;
26634;SDS011;14490;54.208;37.686;2023-06-19T07:17:22;5.30;;;2.70;;
26634;SDS011;14490;54.208;37.686;2023-06-19T07:19:52;7.30;;;2.80;;
26634;SDS011;14490;54.208;37.686;2023-06-19T07:22:19;4.78;;;2.13;;
26634;SDS011;14490;54.208;37.686;2023-06-19T07:24:47;7.55;;;2.80;;
26634;SDS011;14490;54.208;37.686;2023-06-19T07:27:14;24.75;;;3.55;;
26634;SDS011;14490;54.208;37.686;2023-06-19T07:29:45;7.13;;;3.03;;
26634;SDS011;14490;54.208;37.686;2023-06-19T07:32:12;8.60;;;3.70;;
26634;SDS011;14490;54.208;37.686;2023-06-19T07:34:40;9.20;;;3.30;;
26634;SDS011;14490;54.208;37.686;2023-06-19T07:37:09;4.78;;;2.65;;
26634;SDS011;14490;54.208;37.686;2023-06-19T07:39:42;5.82;;;2.10;;
26634;SDS011;14490;54.208;37.686;2023-06-19T07:42:10;3.22;;;2.15;;
26634;SDS011;14490;54.208;37.686;2023-06-19T07:44:37;5.72;;;3.35;;
26634;SDS011;14490;54.208;37.686;2023-06-19T07:47:05;35.30;;;4.35;;
26634;SDS011;14490;54.208;37.686;2023-06-19T07:49:33;5.85;;;2.45;;
26634;SDS011;14490;54.208;37.686;2023-06-19T07:52:01;5.70;;;2.00;;
26634;SDS011;14490;54.208;37.686;2023-06-19T07:54:30;6.18;;;2.47;;
26634;SDS011;14490;54.208;37.686;2023-06-19T07:56:57;7.22;;;2.38;;
26634;SDS011;14490;54.208;37.686;2023-06-19T07:59:25;6.50;;;2.08;;
26634;SDS011;14490;54.208;37.686;2023-06-19T08:01:53;3.38;;;2.00;;
26634;SDS011;14490;54.208;37.686;2023-06-19T08:04:20;4.30;;;2.00;;
26634;SDS011;14490;54.208;37.686;2023-06-19T08:06:47;5.32;;;1.98;;
26634;SDS011;14490;54.208;37.686;2023-06-19T08:09:15;4.88;;;2.38;;
26634;SDS011;14490;54.208;37.686;2023-06-19T08:11:44;6.50;;;1.95;;
26634;SDS011;14490;54.208;37.686;2023-06-19T08:14:12;6.53;;;2.17;;
26634;SDS011;14490;54.208;37.686;2023-06-19T08:16:39;5.68;;;2.47;;
26634;SDS011;14490;54.208;37.686;2023-06-19T08:19:07;4.18;;;2.03;;
26634;SDS011;14490;54.208;37.686;2023-06-19T08:21:34;7.50;;;2.40;;
26634;SDS011;14490;54.208;37.686;2023-06-19T08:24:02;4.50;;;2.30;;
26634;SDS011;14490;54.208;37.686;2023-06-19T08:26:29;4.97;;;2.47;;
26634;SDS011;14490;54.208;37.686;2023-06-19T08:28:58;4.25;;;2.47;;
26634;SDS011;14490;54.208;37.686;2023-06-19T08:31:26;4.75;;;2.10;;
26634;SDS011;14490;54.208;37.686;2023-06-19T08:33:54;4.63;;;2.30;;
26634;SDS011;14490;54.208;37.686;2023-06-19T08:36:21;5.53;;;2.33;;
26634;SDS011;14490;54.208;37.686;2023-06-19T08:38:49;3.88;;;2.13;;
26634;SDS011;14490;54.208;37.686;2023-06-19T08:41:18;4.95;;;2.42;;
26634;SDS011;14490;54.208;37.686;2023-06-19T08:43:46;2.15;;;1.92;;
26634;SDS011;14490;54.208;37.686;2023-06-19T08:46:16;5.03;;;2.50;;
26634;SDS011;14490;54.208;37.686;2023-06-19T08:48:45;8.85;;;3.03;;
26634;SDS011;14490;54.208;37.686;2023-06-19T08:51:15;2.50;;;1.90;;
26634;SDS011;14490;54.208;37.686;2023-06-19T08:53:46;6.30;;;2.80;;
26634;SDS011;14490;54.208;37.686;2023-06-19T08:56:16;3.50;;;2.78;;
26634;SDS011;14490;54.208;37.686;2023-06-19T08:58:47;10.18;;;2.83;;
26634;SDS011;14490;54.208;37.686;2023-06-19T09:01:18;6.82;;;2.65;;
26634;SDS011;14490;54.208;37.686;2023-06-19T09:03:46;4.45;;;3.03;;
26634;SDS011;14490;54.208;37.686;2023-06-19T09:06:17;3.53;;;2.17;;
26634;SDS011;14490;54.208;37.686;2023-06-19T09:08:45;5.10;;;2.25;;
26634;SDS011;14490;54.208;37.686;2023-06-19T09:11:12;5.72;;;1.70;;
26634;SDS011;14490;54.208;37.686;2023-06-19T09:13:55;8.95;;;2.60;;
26634;SDS011;14490;54.208;37.686;2023-06-19T09:16:28;5.95;;;2.15;;
26634;SDS011;14490;54.208;37.686;2023-06-19T09:19:05;2.83;;;2.40;;
26634;SDS011;14490;54.208;37.686;2023-06-19T09:21:35;4.18;;;2.10;;
26634;SDS011;14490;54.208;37.686;2023-06-19T09:24:05;4.25;;;1.95;;
26634;SDS011;14490;54.208;37.686;2023-06-19T09:26:34;5.43;;;2.40;;
26634;SDS011;14490;54.208;37.686;2023-06-19T09:29:11;5.70;;;2.00;;
26634;SDS011;14490;54.208;37.686;2023-06-19T09:31:42;4.72;;;2.58;;
26634;SDS011;14490;54.208;37.686;2023-06-19T09:34:09;7.80;;;2.35;;
26634;SDS011;14490;54.208;37.686;2023-06-19T09:36:37;4.40;;;2.20;;
26634;SDS011;14490;54.208;37.686;2023-06-19T09:39:06;10.13;;;2.78;;
26634;SDS011;14490;54.208;37.686;2023-06-19T09:41:35;2.47;;;2.28;;
26634;SDS011;14490;54.208;37.686;2023-06-19T09:44:03;3.28;;;1.92;;
26634;SDS011;14490;54.208;37.686;2023-06-19T09:46:37;6.15;;;2.40;;
26634;SDS011;14490;54.208;37.686;2023-06-19T09:49:10;3.22;;;2.38;;
26634;SDS011;14490;54.208;37.686;2023-06-19T09:51:42;11.23;;;2.30;;
26634;SDS011;14490;54.208;37.686;2023-06-19T09:54:10;4.50;;;2.28;;
26634;SDS011;14490;54.208;37.686;2023-06-19T09:56:41;4.85;;;2.30;;
26634;SDS011;14490;54.208;37.686;2023-06-19T09:59:09;5.63;;;2.92;;
26634;SDS011;14490;54.208;37.686;2023-06-19T10:01:38;3.20;;;2.72;;
26634;SDS011;14490;54.208;37.686;2023-06-19T10:04:09;4.35;;;2.97;;
26634;SDS011;14490;54.208;37.686;2023-06-19T10:06:42;4.63;;;2.25;;
26634;SDS011;14490;54.208;37.686;2023-06-19T10:09:11;3.70;;;2.70;;
26634;SDS011;14490;54.208;37.686;2023-06-19T10:11:47;2.47;;;2.22;;
26634;SDS011;14490;54.208;37.686;2023-06-19T10:14:16;4.55;;;2.60;;
26634;SDS011;14490;54.208;37.686;2023-06-19T10:16:45;5.70;;;2.35;;
26634;SDS011;14490;54.208;37.686;2023-06-19T10:19:15;5.78;;;2.08;;
26634;SDS011;14490;54.208;37.686;2023-06-19T10:24:14;5.18;;;2.67;;
26634;SDS011;14490;54.208;37.686;2023-06-19T10:26:55;8.80;;;2.40;;
26634;SDS011;14490;54.208;37.686;2023-06-19T10:29:24;4.75;;;2.55;;
26634;SDS011;14490;54.208;37.686;2023-06-19T10:31:52;6.93;;;2.28;;
26634;SDS011;14490;54.208;37.686;2023-06-19T10:34:23;5.28;;;2.38;;
26634;SDS011;14490;54.208;37.686;2023-06-19T10:37:00;2.28;;;2.00;;
26634;SDS011;14490;54.208;37.686;2023-06-19T10:39:28;3.58;;;2.65;;
26634;SDS011;14490;54.208;37.686;2023-06-19T10:41:55;3.88;;;2.58;;
26634;SDS011;14490;54.208;37.686;2023-06-19T10:44:24;5.75;;;2.22;;
26634;SDS011;14490;54.208;37.686;2023-06-19T10:46:52;3.63;;;2.38;;
26634;SDS011;14490;54.208;37.686;2023-06-19T10:49:19;5.72;;;2.60;;
26634;SDS011;14490;54.208;37.686;2023-06-19T10:51:49;4.00;;;1.92;;
26634;SDS011;14490;54.208;37.686;2023-06-19T10:54:22;4.72;;;2.20;;
26634;SDS011;14490;54.208;37.686;2023-06-19T10:56:49;4.00;;;2.83;;
26634;SDS011;14490;54.208;37.686;2023-06-19T10:59:17;4.78;;;2.88;;
26634;SDS011;14490;54.208;37.686;2023-06-19T11:01:45;3.78;;;2.10;;
26634;SDS011;14490;54.208;37.686;2023-06-19T11:04:14;3.90;;;2.53;;
26634;SDS011;14490;54.208;37.686;2023-06-19T11:06:42;4.03;;;2.30;;
26634;SDS011;14490;54.208;37.686;2023-06-19T11:09:14;5.15;;;2.78;;
26634;SDS011;14490;54.208;37.686;2023-06-19T11:11:43;4.85;;;2.03;;
26634;SDS011;14490;54.208;37.686;2023-06-19T11:14:13;3.45;;;2.58;;
26634;SDS011;14490;54.208;37.686;2023-06-19T11:16:42;3.85;;;2.17;;
26634;SDS011;14490;54.208;37.686;2023-06-19T11:19:13;10.15;;;2.42;;
26634;SDS011;14490;54.208;37.686;2023-06-19T11:21:45;10.07;;;2.50;;
26634;SDS011;14490;54.208;37.686;2023-06-19T11:24:15;8.45;;;2.50;;
26634;SDS011;14490;54.208;37.686;2023-06-19T11:26:44;5.70;;;2.50;;
26634;SDS011;14490;54.208;37.686;2023-06-19T11:29:15;5.55;;;2.22;;
26634;SDS011;14490;54.208;37.686;2023-06-19T11:31:45;5.57;;;2.75;;
26634;SDS011;14490;54.208;37.686;2023-06-19T11:34:30;5.15;;;2.25;;
26634;SDS011;14490;54.208;37.686;2023-06-19T11:36:59;4.43;;;2.60;;
26634;SDS011;14490;54.208;37.686;2023-06-19T11:39:28;6.28;;;2.58;;
26634;SDS011;14490;54.208;37.686;2023-06-19T11:41:57;4.60;;;2.22;;
26634;SDS011;14490;54.208;37.686;2023-06-19T11:44:26;9.77;;;2.50;;
26634;SDS011;14490;54.208;37.686;2023-06-19T11:46:56;3.55;;;2.88;;
26634;SDS011;14490;54.208;37.686;2023-06-19T11:49:24;5.93;;;2.90;;
26634;SDS011;14490;54.208;37.686;2023-06-19T11:51:53;4.07;;;1.77;;
26634;SDS011;14490;54.208;37.686;2023-06-19T11:54:20;5.32;;;2.42;;
26634;SDS011;14490;54.208;37.686;2023-06-19T11:56:49;4.00;;;2.20;;
26634;SDS011;14490;54.208;37.686;2023-06-19T11:59:17;6.75;;;2.00;;
26634;SDS011;14490;54.208;37.686;2023-06-19T12:01:44;3.60;;;2.55;;
26634;SDS011;14490;54.208;37.686;2023-06-19T12:04:12;5.38;;;2.28;;
26634;SDS011;14490;54.208;37.686;2023-06-19T12:06:40;6.57;;;2.83;;
26634;SDS011;14490;54.208;37.686;2023-06-19T12:09:07;6.40;;;2.60;;
26634;SDS011;14490;54.208;37.686;2023-06-19T12:11:36;2.72;;;2.30;;
26634;SDS011;14490;54.208;37.686;2023-06-19T12:14:05;3.42;;;2.65;;
26634;SDS011;14490;54.208;37.686;2023-06-19T12:16:33;3.35;;;1.90;;
26634;SDS011;14490;54.208;37.686;2023-06-19T12:19:00;5.80;;;2.38;;
26634;SDS011;14490;54.208;37.686;2023-06-19T12:21:30;3.40;;;1.98;;
26634;SDS011;14490;54.208;37.686;2023-06-19T12:23:58;3.63;;;1.90;;
26634;SDS011;14490;54.208;37.686;2023-06-19T12:26:28;4.47;;;2.08;;
26634;SDS011;14490;54.208;37.686;2023-06-19T12:28:56;4.10;;;2.20;;
26634;SDS011;14490;54.208;37.686;2023-06-19T12:31:25;7.82;;;2.00;;
26634;SDS011;14490;54.208;37.686;2023-06-19T12:33:52;7.72;;;2.45;;
26634;SDS011;14490;54.208;37.686;2023-06-19T12:36:20;5.55;;;2.05;;
26634;SDS011;14490;54.208;37.686;2023-06-19T12:38:47;2.97;;;1.98;;
26634;SDS011;14490;54.208;37.686;2023-06-19T12:41:15;3.08;;;2.17;;
26634;SDS011;14490;54.208;37.686;2023-06-19T12:43:42;5.93;;;2.03;;
26634;SDS011;14490;54.208;37.686;2023-06-19T12:46:10;4.05;;;2.20;;
26634;SDS011;14490;54.208;37.686;2023-06-19T12:48:39;8.07;;;2.80;;
26634;SDS011;14490;54.208;37.686;2023-06-19T12:51:07;5.32;;;2.22;;
26634;SDS011;14490;54.208;37.686;2023-06-19T12:53:34;5.10;;;2.20;;
26634;SDS011;14490;54.208;37.686;2023-06-19T12:56:02;7.53;;;2.83;;
26634;SDS011;14490;54.208;37.686;2023-06-19T12:58:30;7.47;;;2.55;;
26634;SDS011;14490;54.208;37.686;2023-06-19T13:00:57;4.63;;;2.08;;
26634;SDS011;14490;54.208;37.686;2023-06-19T13:03:25;7.30;;;2.28;;
26634;SDS011;14490;54.208;37.686;2023-06-19T13:05:53;2.30;;;1.77;;
26634;SDS011;14490;54.208;37.686;2023-06-19T13:08:21;2.92;;;2.00;;
26634;SDS011;14490;54.208;37.686;2023-06-19T13:10:48;2.90;;;1.65;;
26634;SDS011;14490;54.208;37.686;2023-06-19T13:13:16;3.25;;;1.80;;
26634;SDS011;14490;54.208;37.686;2023-06-19T13:15:43;2.88;;;1.65;;
26634;SDS011;14490;54.208;37.686;2023-06-19T13:18:10;3.90;;;1.85;;
26634;SDS011;14490;54.208;37.686;2023-06-19T13:20:38;5.60;;;2.08;;
26634;SDS011;14490;54.208;37.686;2023-06-19T13:23:07;5.38;;;2.83;;
26634;SDS011;14490;54.208;37.686;2023-06-19T13:25:35;7.32;;;3.03;;
26634;SDS011;14490;54.208;37.686;2023-06-19T13:28:02;2.17;;;1.77;;
26634;SDS011;14490;54.208;37.686;2023-06-19T13:30:30;3.35;;;1.65;;
26634;SDS011;14490;54.208;37.686;2023-06-19T13:32:57;7.22;;;2.40;;
26634;SDS011;14490;54.208;37.686;2023-06-19T13:35:25;10.55;;;2.00;;
26634;SDS011;14490;54.208;37.686;2023-06-19T13:37:52;7.53;;;2.05;;
26634;SDS011;14490;54.208;37.686;2023-06-19T13:40:21;3.90;;;2.15;;
26634;SDS011;14490;54.208;37.686;2023-06-19T13:42:49;3.05;;;1.52;;
26634;SDS011;14490;54.208;37.686;2023-06-19T13:45:16;7.32;;;2.03;;
26634;SDS011;14490;54.208;37.686;2023-06-19T13:47:44;2.70;;;1.73;;
26634;SDS011;14490;54.208;37.686;2023-06-19T13:50:12;5.38;;;2.10;;
26634;SDS011;14490;54.208;37.686;2023-06-19T13:52:43;4.18;;;2.30;;
26634;SDS011;14490;54.208;37.686;2023-06-19T13:55:11;3.92;;;2.20;;
26634;SDS011;14490;54.208;37.686;2023-06-19T13:57:41;8.32;;;2.25;;
26634;SDS011;14490;54.208;37.686;2023-06-19T14:00:09;2.05;;;1.77;;
26634;SDS011;14490;54.208;37.686;2023-06-19T14:02:38;1.95;;;1.23;;
26634;SDS011;14490;54.208;37.686;2023-06-19T14:05:07;3.10;;;2.22;;
26634;SDS011;14490;54.208;37.686;2023-06-19T14:07:36;5.60;;;1.88;;
26634;SDS011;14490;54.208;37.686;2023-06-19T14:10:03;2.72;;;1.77;;
26634;SDS011;14490;54.208;37.686;2023-06-19T14:12:32;3.35;;;2.10;;
26634;SDS011;14490;54.208;37.686;2023-06-19T14:15:01;2.85;;;1.60;;
26634;SDS011;14490;54.208;37.686;2023-06-19T14:17:28;2.03;;;1.60;;
26634;SDS011;14490;54.208;37.686;2023-06-19T14:19:56;3.83;;;1.77;;
26634;SDS011;14490;54.208;37.686;2023-06-19T14:22:23;2.00;;;1.60;;
26634;SDS011;14490;54.208;37.686;2023-06-19T14:24:51;2.65;;;1.90;;
26634;SDS011;14490;54.208;37.686;2023-06-19T14:27:24;2.42;;;1.65;;
26634;SDS011;14490;54.208;37.686;2023-06-19T14:29:53;4.68;;;2.20;;
26634;SDS011;14490;54.208;37.686;2023-06-19T14:32:23;3.95;;;1.55;;
26634;SDS011;14490;54.208;37.686;2023-06-19T14:34:50;2.25;;;1.85;;
26634;SDS011;14490;54.208;37.686;2023-06-19T14:37:18;2.83;;;1.67;;
26634;SDS011;14490;54.208;37.686;2023-06-19T14:39:46;4.80;;;2.20;;
26634;SDS011;14490;54.208;37.686;2023-06-19T14:42:13;4.50;;;1.70;;